Latest Weather Observations for Braidwood

IDN60801

Issued at 11:32 pm EST Saturday 28 May 2016 (issued every 30 minutes, with the page automatically refreshed every 10 minutes)

About weather observations | Map of weather stations | Latest weather observations for NSW | Other Formats
Station Details ID: 069132 Name: BRAIDWOOD RACECOURSE AWS Lat: -35.43 Lon: 149.78 Height: 665.2 m
Data from the previous 72 hours. | See also: Recent months at Braidwood
Date/Time
EST
Temp
°C
App
Temp
°C
Dew
Point
Rel
Hum
%
Delta-T
°C
Wind Press
QNH
hPa
Press
MSL
hPa
Rain
since 9 am
mm
Dir
 
Spd
km/h
Gust
km/h
Spd
kts
Gust
kts
28/11:00pm 0.7 -1.7 0.0 95 0.3 N 2 6 1 3 1012.6 1012.5 0.0
28/10:30pm 0.9 -1.9 -0.1 93 0.4 NNW 4 6 2 3 1012.3 1012.3 0.0
28/10:00pm 1.5 -1.1 0.8 95 0.3 NE 4 7 2 4 1012.1 1012.1 0.0
28/09:30pm 2.2 -0.8 0.9 91 0.5 NNW 6 7 3 4 1012.2 1012.2 0.0
28/09:00pm 3.2 0.3 1.4 88 0.7 NNW 6 9 3 5 1012.1 1012.1 0.0
28/08:30pm 4.1 1.1 2.1 87 0.8 NW 7 11 4 6 1011.9 1011.9 0.0
28/08:00pm 4.4 1.4 2.3 86 0.9 WNW 7 11 4 6 1011.6 1011.6 0.0
28/07:30pm 5.1 1.9 3.3 88 0.8 WNW 9 11 5 6 1011.2 1011.1 0.0
28/07:00pm 4.9 2.2 2.9 87 0.9 NW 6 7 3 4 1011.0 1010.9 0.0
28/06:30pm 5.6 2.8 3.4 86 1.0 NW 7 9 4 5 1010.2 1010.2 0.0
28/06:00pm 4.8 2.3 1.5 79 1.4 NNW 4 6 2 3 1009.8 1009.7 0.0
28/05:30pm 6.6 3.7 1.7 71 2.1 NNW 6 7 3 4 1009.0 1009.0 0.0
28/05:00pm 7.9 4.6 2.6 69 2.3 WNW 9 11 5 6 1008.4 1008.3 0.0
28/04:30pm 9.3 6.1 2.9 64 2.8 W 9 15 5 8 1008.0 1007.9 0.0
28/04:00pm 10.0 5.5 1.9 57 3.6 W 15 20 8 11 1007.8 1007.7 0.0
28/03:30pm 11.1 7.6 -1.0 43 5.0 SW 7 11 4 6 1007.1 1007.0 0.0
28/03:00pm 11.5 6.3 -2.7 37 5.7 SW 15 26 8 14 1006.5 1006.4 0.0
28/02:30pm 12.0 6.9 -5.0 30 6.5 SSW 13 20 7 11 1006.0 1005.9 0.0
28/02:00pm 12.4 8.4 -6.0 27 6.9 WSW 7 19 4 10 1005.6 1005.5 0.0
28/01:30pm 12.7 10.6 -0.9 39 5.7 CALM 0 0 0 0 1005.3 1005.2 0.0
28/01:00pm 11.4 9.4 0.2 46 4.8 CALM 0 0 0 0 1005.5 1005.4 0.0
28/12:30pm 11.2 9.4 1.2 50 4.4 CALM 0 2 0 1 1005.5 1005.4 0.0
28/12:00pm 10.0 7.6 1.9 57 3.6 NW 4 9 2 5 1005.6 1005.5 0.0
28/11:30am 9.3 6.5 3.3 66 2.7 NNW 7 13 4 7 1006.0 1005.9 0.0
28/11:00am 7.4 5.2 3.3 75 1.8 NW 4 7 2 4 1006.4 1006.3 0.0
28/10:30am 5.9 4.4 3.1 82 1.2 CALM 0 0 0 0 1006.6 1006.5 0.0
28/10:00am 4.8 3.4 3.5 91 0.6 CALM 0 0 0 0 1006.6 1006.5 0.0
28/09:30am 2.0 0.1 0.7 91 0.5 CALM 0 0 0 0 1006.5 1006.4 0.0
28/09:00am 1.4 -0.5 0.4 93 0.4 CALM 0 0 0 0 1006.5 1006.4 0.0
28/08:30am 0.4 -1.7 -0.5 94 0.3 CALM 0 0 0 0 1006.7 1006.6 0.0
28/08:00am -0.8 -4.2 -1.8 93 0.3 SSE 6 7 3 4 1006.9 1006.8 0.0
28/07:30am -0.5 -3.1 -1.5 93 0.3 N 2 4 1 2 1006.8 1006.7 0.0
28/07:00am -0.4 -3.3 -1.2 94 0.3 NW 4 7 2 4 1006.8 1006.7 0.0
28/06:30am -1.5 -3.8 -2.6 92 0.3 CALM 0 0 0 0 1006.8 1006.7 0.0
28/06:00am -1.8 -5.0 -3.5 88 0.5 SSE 4 4 2 2 1006.6 1006.5 0.0
28/05:30am -0.6 -3.3 -2.3 88 0.6 S 2 6 1 3 1006.4 1006.3 0.0
28/05:00am 0.2 -2.5 -2.7 81 1.0 SSE 2 4 1 2 1006.4 1006.3 0.0
28/04:30am 1.2 -1.7 -0.9 86 0.8 WNW 4 9 2 5 1006.4 1006.3 0.0
28/04:00am 0.9 -2.6 -1.0 87 0.7 W 7 9 4 5 1006.2 1006.0 0.0
28/03:30am -0.5 -3.1 -1.5 93 0.3 NNE 2 6 1 3 1006.3 1006.2 0.0
28/03:00am -1.6 -5.7 -2.9 91 0.4 SE 9 13 5 7 1006.5 1006.4 0.0
28/02:30am -0.3 -3.0 -2.3 86 0.7 WNW 2 6 1 3 1006.9 1006.8 0.0
28/02:00am 0.4 -2.7 -2.3 82 1.0 N 4 7 2 4 1007.1 1007.0 0.0
28/01:30am 0.6 -1.7 -2.1 82 1.0 CALM 0 2 0 1 1007.1 1007.0 0.0
28/01:00am 2.4 -1.1 -1.2 77 1.4 WNW 7 13 4 7 1006.9 1006.8 0.0
28/12:30am 3.8 -0.1 -1.4 69 2.0 NW 9 15 5 8 1007.2 1007.1 0.0
28/12:00am 3.9 -0.6 -0.3 74 1.6 NW 13 17 7 9 1007.2 1007.1 0.0
 
Date/Time
EST
Temp
°C
App
Temp
°C
Dew
Point
Rel
Hum
%
Delta-T
°C
Wind Press
QNH
hPa
Press
MSL
hPa
Rain
since 9 am
mm
Dir
 
Spd
km/h
Gust
km/h
Spd
kts
Gust
kts
27/11:30pm 3.6 -0.2 -0.4 75 1.6 NW 9 15 5 8 1007.3 1007.2 0.0
27/11:00pm 4.1 0.8 -0.1 74 1.7 NNW 7 19 4 10 1007.2 1007.1 0.0
27/10:30pm 4.0 0.7 -1.0 70 1.9 NNE 6 13 3 7 1007.0 1006.9 0.0
27/10:00pm 4.5 1.2 -1.3 66 2.2 NNW 6 11 3 6 1007.0 1006.9 0.0
27/09:30pm 6.1 1.2 -0.4 63 2.6 NW 15 22 8 12 1007.0 1006.9 0.0
27/09:00pm 5.9 1.0 -0.2 65 2.4 NW 15 22 8 12 1006.7 1006.6 0.0
27/08:30pm 5.9 0.2 -0.6 63 2.6 WNW 19 30 10 16 1006.5 1006.4 0.0
27/08:00pm 5.6 1.0 -1.3 61 2.7 NW 13 17 7 9 1006.3 1006.2 0.0
27/07:30pm 6.6 3.6 -2.0 54 3.3 NNE 4 9 2 5 1006.4 1006.3 0.0
27/07:00pm 7.3 2.2 -1.6 53 3.5 W 15 32 8 17 1005.8 1005.7 0.0
27/06:30pm 7.6 1.8 -1.6 52 3.6 WNW 19 26 10 14 1005.4 1005.3 0.0
27/06:00pm 8.0 2.9 -1.8 50 3.9 WNW 15 22 8 12 1005.0 1004.9 0.0
27/05:30pm 8.4 2.3 -2.0 48 4.1 WNW 20 33 11 18 1004.4 1004.3 0.0
27/05:00pm 9.0 2.9 -2.3 45 4.5 W 20 33 11 18 1004.0 1003.9 0.0
27/04:30pm 9.7 2.0 -2.9 41 4.9 W 28 39 15 21 1003.4 1003.2 0.0
27/04:00pm 10.5 2.1 -2.8 39 5.3 W 32 44 17 24 1003.1 1002.9 0.0
27/03:30pm 11.2 3.2 -2.6 38 5.5 W 30 43 16 23 1002.4 1002.3 0.0
27/03:00pm 11.1 3.8 -2.7 38 5.5 W 26 37 14 20 1002.1 1001.9 0.0
27/02:30pm 11.9 3.8 -3.4 34 6.0 W 30 48 16 26 1001.7 1001.5 0.0
27/02:27pm 11.7 3.9 -3.6 34 6.0 W 28 48 15 26 1001.7 1001.5 0.0
27/02:00pm 11.6 2.9 -3.3 35 5.9 W 33 50 18 27 1001.5 1001.3 0.0
27/01:33pm 11.7 2.6 -3.2 35 5.9 W 35 57 19 31 1001.4 1001.2 0.0
27/01:30pm 12.0 3.0 -2.6 36 5.9 W 35 54 19 29 1001.4 1001.2 0.0
27/01:00pm 11.8 2.4 -2.8 36 5.9 W 37 57 20 31 1001.5 1001.3 0.0
27/12:31pm 11.4 2.4 -3.1 36 5.7 W 35 54 19 29 1001.2 1001.1 0.0
27/12:30pm 11.4 2.4 -3.1 36 5.7 W 35 46 19 25 1001.4 1001.2 0.0
27/12:20pm 11.9 3.5 -2.3 37 5.8 W 32 50 17 27 1001.4 1001.2 0.0
27/12:00pm 11.5 3.1 -2.7 37 5.7 W 32 50 17 27 1001.7 1001.5 0.0
27/11:33am 11.3 2.4 -1.8 40 5.3 W 35 56 19 30 1001.8 1001.6 0.0
27/11:30am 11.1 1.5 -1.6 41 5.2 W 39 56 21 30 1001.8 1001.6 0.0
27/11:05am 10.6 3.1 -1.4 43 4.9 W 28 48 15 26 1002.0 1001.8 0.0
27/11:00am 10.6 2.9 0.1 48 4.5 W 30 41 16 22 1002.0 1001.8 0.0
27/10:30am 10.3 3.8 0.6 51 4.1 W 24 35 13 19 1002.4 1002.3 0.0
27/10:00am 9.9 3.0 0.3 51 4.1 WNW 26 41 14 22 1002.6 1002.5 0.0
27/09:30am 9.0 2.8 -0.1 53 3.8 WNW 22 35 12 19 1002.6 1002.5 0.0
27/09:00am 8.4 2.3 0.6 58 3.3 WNW 22 32 12 17 1002.4 1002.3 0.4
27/08:30am 7.8 2.7 1.0 62 2.9 WNW 17 24 9 13 1002.2 1002.0 0.4
27/08:00am 6.4 1.7 0.9 68 2.3 WNW 15 20 8 11 1002.1 1001.9 0.4
27/07:30am 5.5 0.8 0.9 72 1.9 WNW 15 20 8 11 1002.0 1001.8 0.4
27/07:00am 5.3 -0.1 1.2 75 1.7 WNW 19 26 10 14 1001.7 1001.5 0.4
27/06:30am 4.8 0.2 1.5 79 1.4 NW 15 20 8 11 1001.6 1001.4 0.4
27/06:00am 4.4 0.5 1.4 81 1.2 NW 11 19 6 10 1001.5 1001.3 0.4
27/05:30am 5.6 0.3 1.9 77 1.6 NW 19 28 10 15 1001.1 1001.0 0.4
27/05:00am 6.1 0.8 2.9 80 1.4 NW 20 28 11 15 1001.1 1001.0 0.4
27/04:30am 5.4 1.4 2.6 82 1.2 NW 13 19 7 10 1001.0 1000.8 0.2
27/04:00am 5.9 1.6 3.1 82 1.2 NW 15 20 8 11 1001.1 1001.0 0.2
27/03:30am 6.0 2.1 3.5 84 1.1 NW 13 17 7 9 1001.4 1001.2 0.2
27/03:00am 4.8 1.6 3.1 89 0.7 NW 9 13 5 7 1001.4 1001.2 0.2
27/02:30am 5.0 2.3 2.5 84 1.1 NNW 6 13 3 7 1001.2 1001.1 0.2
27/02:00am 7.0 4.3 3.6 79 1.5 WNW 7 11 4 6 1001.4 1001.2 0.2
27/01:30am 7.3 4.8 3.7 78 1.6 W 6 9 3 5 1001.4 1001.2 0.2
27/01:00am 7.7 3.2 4.1 78 1.6 WNW 17 24 9 13 1001.4 1001.2 0.2
27/12:30am 7.1 2.9 3.7 79 1.5 NW 15 20 8 11 1001.5 1001.3 0.2
27/12:00am 7.1 3.5 2.8 74 1.9 NW 11 17 6 9 1001.8 1001.6 0.2
 
Date/Time
EST
Temp
°C
App
Temp
°C
Dew
Point
Rel
Hum
%
Delta-T
°C
Wind Press
QNH
hPa
Press
MSL
hPa
Rain
since 9 am
mm
Dir
 
Spd
km/h
Gust
km/h
Spd
kts
Gust
kts
26/11:30pm 8.0 2.8 3.5 73 2.0 WNW 20 24 11 13 1001.8 1001.6 0.2
26/11:00pm 8.1 2.8 3.2 71 2.2 WNW 20 28 11 15 1001.8 1001.6 0.2
26/10:30pm 7.9 2.6 2.8 70 2.2 WNW 20 32 11 17 1001.6 1001.4 0.2
26/10:00pm 8.5 3.5 3.6 71 2.2 NW 19 30 10 16 1001.1 1001.0 0.2
26/09:30pm 9.0 4.0 4.4 73 2.1 NW 20 33 11 18 1001.7 1001.5 0.2
26/09:00pm 9.1 4.8 5.3 77 1.8 NW 17 24 9 13 1001.9 1001.7 0.2
26/08:30pm 8.8 5.4 5.9 82 1.4 NW 13 17 7 9 1001.8 1001.6 0.2
26/08:00pm 7.7 5.4 5.8 88 0.9 NW 7 11 4 6 1001.9 1001.7 0.2
26/07:30pm 8.4 6.2 6.4 87 1.0 NW 7 13 4 7 1001.7 1001.5 0.2
26/07:00pm 8.3 6.3 6.9 91 0.7 NW 7 13 4 7 1001.6 1001.4 0.2
26/06:30pm 7.4 4.9 4.9 84 1.1 NNW 7 11 4 6 1001.1 1001.0 0.2
26/06:00pm 8.2 5.7 4.8 79 1.6 NW 7 11 4 6 1001.0 1000.8 0.2
26/05:30pm 9.9 6.2 6.1 77 1.8 NW 15 20 8 11 1000.7 1000.5 0.2
26/05:00pm 10.2 6.5 6.2 76 1.9 NW 15 26 8 14 1000.4 1000.2 0.2
26/04:30pm 10.6 7.3 6.4 75 2.0 NW 13 26 7 14 1000.1 999.9 0.2
26/04:00pm 11.0 6.0 6.4 73 2.3 WNW 22 32 12 17 1000.2 1000.0 0.2
26/03:30pm 11.2 6.0 7.1 76 2.0 WNW 24 35 13 19 999.9 999.7 0.2
26/03:00pm 10.7 5.7 6.6 76 2.0 NW 22 37 12 20 1000.0 999.8 0.2
26/02:30pm 10.4 5.2 7.3 81 1.5 WNW 24 41 13 22 1000.1 999.9 0.2
26/02:00pm 10.3 4.7 7.2 81 1.5 NW 26 41 14 22 999.9 999.7 0.2
26/01:30pm 9.9 5.6 7.8 87 1.0 NW 20 32 11 17 1000.4 1000.2 0.2
26/01:00pm 9.5 4.7 7.4 87 1.0 NW 22 35 12 19 1001.1 1001.0 0.2
26/12:30pm 9.1 6.1 7.5 90 0.8 NW 13 24 7 13 1001.6 1001.4 0.2
26/12:00pm 8.6 4.7 7.1 90 0.7 NW 17 28 9 15 1002.5 1002.4 0.2
26/11:30am 9.2 4.2 6.6 84 1.3 NW 22 37 12 20 1003.1 1002.9 0.0
26/11:00am 8.9 4.9 6.5 85 1.2 NW 17 28 9 15 1003.7 1003.6 0.0
26/10:30am 8.9 6.2 7.4 90 0.7 NW 11 20 6 11 1004.4 1004.3 0.0
26/10:00am 9.0 4.5 6.3 83 1.3 NW 19 32 10 17 1004.9 1004.7 0.0
26/09:30am 8.6 5.7 6.6 87 1.0 NW 11 20 6 11 1005.1 1005.0 0.0
26/09:00am 8.5 5.1 6.1 85 1.1 NW 13 26 7 14 1005.3 1005.2 0.0
26/08:30am 8.3 5.0 6.4 88 0.9 NW 13 22 7 12 1005.6 1005.5 0.0
26/08:00am 8.1 4.9 6.7 91 0.7 NW 13 28 7 15 1006.5 1006.4 0.0
26/07:30am 8.1 4.1 6.6 90 0.7 NW 17 28 9 15 1007.1 1007.0 0.0
26/07:00am 8.2 4.9 6.3 88 0.9 NW 13 24 7 13 1006.9 1006.8 0.0
26/06:30am 8.1 5.1 6.2 88 0.9 NNW 11 22 6 12 1007.1 1007.0 0.0
26/06:00am 8.3 4.5 5.9 85 1.1 NW 15 24 8 13 1007.2 1007.1 0.0
26/05:30am 8.4 5.4 5.9 84 1.2 NW 11 22 6 12 1007.9 1007.8 0.0
26/05:00am 8.4 4.9 5.5 82 1.4 NW 13 24 7 13 1008.3 1008.2 0.0
26/04:30am 8.4 4.9 5.3 81 1.4 NW 13 20 7 11 1008.7 1008.6 0.0
26/04:00am 8.4 5.9 5.0 79 1.6 NNW 7 15 4 8 1008.7 1008.6 0.0
26/03:30am 8.5 4.9 4.9 78 1.7 NW 13 28 7 15 1008.6 1008.5 0.0
26/03:00am 8.7 4.4 5.3 79 1.6 NNW 17 28 9 15 1009.2 1009.2 0.0
26/02:30am 8.9 6.1 5.1 77 1.8 NNW 9 19 5 10 1009.8 1009.7 0.0
26/02:00am 8.9 6.5 5.1 77 1.8 NW 7 15 4 8 1010.3 1010.3 0.0
26/01:30am 9.0 5.8 5.0 76 1.9 NW 11 20 6 11 1010.5 1010.5 0.0
26/01:00am 8.7 5.9 5.1 78 1.7 NNW 9 15 5 8 1010.6 1010.6 0.0
26/12:30am 9.0 5.4 5.0 76 1.9 NW 13 22 7 12 1011.3 1011.2 0.0
26/12:00am 9.0 5.0 4.8 75 1.9 NW 15 22 8 12 1011.9 1011.9 0.0

Other Formats:

Comma delimited format used in spreadsheet applications
http://www.bom.gov.au/fwo/IDN60801/IDN60801.94927.axf

JavaScript Object Notation format (JSON) in row-major order
http://www.bom.gov.au/fwo/IDN60801/IDN60801.94927.json